Time;durP1;ratioP1;P1;durP2;ratioP2;P2;SDS_P1;SDS_P2;PMS_P1;PMS_P2;Temp;Humidity;BMP_temperature;BMP_pressure;BME280_temperature;BME280_humidity;BME280_pressure;Samples;Min_cycle;Max_cycle;Signal;HPM_P1;HPM_P2
2023/12/23 00:00:54;;;;;;;0.20;0.20;;;;;;;;;;6293462;28;20372;-83
2023/12/23 00:03:55;;;;;;;0.20;0.20;;;;;;;;;;6293465;28;20025;-82
2023/12/23 00:06:55;;;;;;;0.20;0.20;;;;;;;;;;6293354;28;20526;-83
2023/12/23 00:09:55;;;;;;;0.20;0.20;;;;;;;;;;6293530;28;20031;-84
2023/12/23 00:12:55;;;;;;;0.20;0.20;;;;;;;;;;6293163;28;20024;-84
2023/12/23 00:15:56;;;;;;;0.20;0.20;;;;;;;;;;6293069;28;20020;-83
2023/12/23 00:18:56;;;;;;;0.20;0.20;;;;;;;;;;6292948;28;20028;-84
2023/12/23 00:21:56;;;;;;;0.20;0.20;;;;;;;;;;6275078;28;20020;-83
2023/12/23 00:24:57;;;;;;;0.30;0.30;;;;;;;;;;6293256;28;20120;-83
2023/12/23 00:27:57;;;;;;;0.20;0.20;;;;;;;;;;6293055;28;20562;-83
2023/12/23 00:30:57;;;;;;;0.20;0.20;;;;;;;;;;6292992;28;20028;-83
2023/12/23 00:33:58;;;;;;;0.20;0.20;;;;;;;;;;6267185;28;20107;-83
2023/12/23 00:36:58;;;;;;;0.20;0.20;;;;;;;;;;6270424;28;20017;-83
2023/12/23 00:39:58;;;;;;;0.20;0.20;;;;;;;;;;6292933;28;20059;-82
2023/12/23 00:42:58;;;;;;;0.20;0.20;;;;;;;;;;6275183;28;20497;-82
2023/12/23 00:45:59;;;;;;;0.20;0.20;;;;;;;;;;6292217;28;20483;-83
2023/12/23 00:48:59;;;;;;;0.20;0.20;;;;;;;;;;6292823;28;20025;-83
2023/12/23 00:52:00;;;;;;;0.20;0.20;;;;;;;;;;6292308;28;20394;-83
2023/12/23 00:55:02;;;;;;;0.20;0.20;;;;;;;;;;6273933;28;20474;-79
2023/12/23 00:58:02;;;;;;;0.30;0.30;;;;;;;;;;6290044;28;20059;-80
2023/12/23 01:01:02;;;;;;;0.20;0.20;;;;;;;;;;6292980;28;20065;-80
2023/12/23 01:04:03;;;;;;;0.20;0.20;;;;;;;;;;6273678;28;20050;-81
2023/12/23 01:07:03;;;;;;;0.20;0.20;;;;;;;;;;6289571;28;20106;-82
2023/12/23 01:10:04;;;;;;;0.20;0.20;;;;;;;;;;6292565;28;20039;-81
2023/12/23 01:13:04;;;;;;;0.20;0.20;;;;;;;;;;6292291;28;20028;-81
2023/12/23 01:16:04;;;;;;;0.20;0.20;;;;;;;;;;6291958;28;20019;-81
2023/12/23 01:19:04;;;;;;;0.20;0.20;;;;;;;;;;6290732;28;20047;-80
2023/12/23 01:22:04;;;;;;;0.20;0.20;;;;;;;;;;6292536;28;20094;-81
2023/12/23 01:25:05;;;;;;;0.20;0.20;;;;;;;;;;6292100;28;20098;-80
2023/12/23 01:28:05;;;;;;;0.20;0.20;;;;;;;;;;6292131;28;20103;-81
2023/12/23 01:31:05;;;;;;;0.20;0.20;;;;;;;;;;6292653;28;20056;-81
2023/12/23 01:34:05;;;;;;;0.20;0.20;;;;;;;;;;6291116;28;20021;-81
2023/12/23 01:37:06;;;;;;;0.20;0.20;;;;;;;;;;6291605;28;20028;-81
2023/12/23 01:40:06;;;;;;;0.20;0.20;;;;;;;;;;6292286;28;20099;-82
2023/12/23 01:43:06;;;;;;;0.20;0.20;;;;;;;;;;6277571;28;20021;-82
2023/12/23 01:46:06;;;;;;;0.20;0.20;;;;;;;;;;6273862;28;20028;-80
2023/12/23 01:49:07;;;;;;;0.20;0.20;;;;;;;;;;6273571;28;20119;-82
2023/12/23 01:52:07;;;;;;;0.20;0.20;;;;;;;;;;6291434;28;20505;-81
2023/12/23 01:55:08;;;;;;;0.20;0.20;;;;;;;;;;6292150;28;20016;-81
2023/12/23 01:58:08;;;;;;;0.20;0.20;;;;;;;;;;6273059;28;20031;-81
2023/12/23 02:01:08;;;;;;;0.20;0.20;;;;;;;;;;6273201;28;20509;-82
2023/12/23 02:04:09;;;;;;;0.20;0.20;;;;;;;;;;6289585;28;20033;-82
2023/12/23 02:07:09;;;;;;;0.20;0.20;;;;;;;;;;6262957;28;20053;-82
2023/12/23 02:10:09;;;;;;;0.20;0.20;;;;;;;;;;6296137;28;20028;-82
2023/12/23 02:13:19;;;;;;;0.20;0.20;;;;;;;;;;6278076;28;20020;-82
2023/12/23 02:16:20;;;;;;;0.22;0.22;;;;;;;;;;6296314;28;20514;-82
2023/12/23 02:19:20;;;;;;;0.20;0.20;;;;;;;;;;6296563;28;20031;-82
2023/12/23 02:22:20;;;;;;;0.22;0.22;;;;;;;;;;6296568;28;20028;-81
2023/12/23 02:25:22;;;;;;;0.20;0.20;;;;;;;;;;6277670;28;20028;-82
2023/12/23 02:28:22;;;;;;;;;;;;;;;;;;6295914;28;20425;-82
2023/12/23 02:31:23;;;;;;;0.30;0.30;;;;;;;;;;6293191;28;19908;-82
2023/12/23 02:34:23;;;;;;;0.20;0.20;;;;;;;;;;6277997;28;20012;-82
2023/12/23 02:37:23;;;;;;;0.20;0.20;;;;;;;;;;6277900;28;20386;-82
2023/12/23 02:40:24;;;;;;;0.30;0.30;;;;;;;;;;6277604;28;20027;-81
2023/12/23 02:43:24;;;;;;;0.20;0.20;;;;;;;;;;6296131;28;20078;-82
2023/12/23 02:46:24;;;;;;;0.20;0.20;;;;;;;;;;6296169;28;20070;-82
2023/12/23 02:49:24;;;;;;;0.20;0.20;;;;;;;;;;6295481;28;20024;-83
2023/12/23 02:52:24;;;;;;;0.20;0.20;;;;;;;;;;6277438;28;20017;-82
2023/12/23 02:55:24;;;;;;;0.20;0.20;;;;;;;;;;6281335;28;20023;-82
2023/12/23 02:58:25;;;;;;;0.20;0.20;;;;;;;;;;6294924;28;20450;-82
2023/12/23 03:01:25;;;;;;;0.20;0.20;;;;;;;;;;6255915;28;20013;-82
2023/12/23 03:04:25;;;;;;;0.20;0.20;;;;;;;;;;6273681;28;20668;-82
2023/12/23 03:07:25;;;;;;;0.20;0.20;;;;;;;;;;6294887;28;20067;-82
2023/12/23 03:10:26;;;;;;;0.20;0.20;;;;;;;;;;6294999;28;20028;-82
2023/12/23 03:13:26;;;;;;;0.20;0.20;;;;;;;;;;6295068;28;20108;-83
2023/12/23 03:16:33;;;;;;;0.20;0.20;;;;;;;;;;6294707;28;20012;-81
2023/12/23 03:19:33;;;;;;;0.20;0.20;;;;;;;;;;6275258;28;20475;-82
2023/12/23 03:22:34;;;;;;;0.20;0.20;;;;;;;;;;6268829;28;20036;-82
2023/12/23 03:25:34;;;;;;;0.20;0.20;;;;;;;;;;6293395;28;20112;-82
2023/12/23 03:28:34;;;;;;;0.20;0.20;;;;;;;;;;6294611;28;20467;-81
2023/12/23 03:31:34;;;;;;;0.20;0.20;;;;;;;;;;6294231;28;20046;-80
2023/12/23 03:34:35;;;;;;;0.20;0.20;;;;;;;;;;6276536;28;20023;-81
2023/12/23 03:37:35;;;;;;;0.20;0.20;;;;;;;;;;6294280;28;20027;-82
2023/12/23 03:40:35;;;;;;;0.20;0.20;;;;;;;;;;6275925;28;20016;-81
2023/12/23 03:43:35;;;;;;;0.20;0.20;;;;;;;;;;6293563;28;20024;-81
2023/12/23 03:46:35;;;;;;;0.30;0.30;;;;;;;;;;6280100;28;20024;-81
2023/12/23 03:49:36;;;;;;;0.20;0.20;;;;;;;;;;6294742;28;20025;-81
2023/12/23 03:52:36;;;;;;;0.20;0.20;;;;;;;;;;6274835;28;20078;-80
2023/12/23 03:55:38;;;;;;;0.20;0.20;;;;;;;;;;6273253;28;20055;-81
2023/12/23 03:58:39;;;;;;;0.20;0.20;;;;;;;;;;6273464;28;20027;-81
2023/12/23 04:01:40;;;;;;;0.20;0.20;;;;;;;;;;6261853;28;20036;-81
2023/12/23 04:04:40;;;;;;;0.20;0.20;;;;;;;;;;6293401;28;20063;-81
2023/12/23 04:07:41;;;;;;;0.20;0.20;;;;;;;;;;6275387;28;20387;-80
2023/12/23 04:10:41;;;;;;;0.20;0.20;;;;;;;;;;6293445;28;20016;-81
2023/12/23 04:13:41;;;;;;;0.20;0.20;;;;;;;;;;6275189;28;20017;-81
2023/12/23 04:16:41;;;;;;;0.20;0.20;;;;;;;;;;6274994;28;20181;-80
2023/12/23 04:19:41;;;;;;;0.20;0.20;;;;;;;;;;6293711;28;20017;-81
2023/12/23 04:22:47;;;;;;;0.20;0.20;;;;;;;;;;6292980;28;20033;-81
2023/12/23 04:25:47;;;;;;;0.20;0.20;;;;;;;;;;6293579;28;20024;-81
2023/12/23 04:28:47;;;;;;;0.20;0.20;;;;;;;;;;6274874;28;20016;-80
2023/12/23 04:31:47;;;;;;;0.20;0.20;;;;;;;;;;6292974;28;20531;-80
2023/12/23 04:34:48;;;;;;;0.20;0.20;;;;;;;;;;6292567;28;20021;-80
2023/12/23 04:37:48;;;;;;;0.20;0.20;;;;;;;;;;6293258;28;20459;-79
2023/12/23 04:40:48;;;;;;;0.20;0.20;;;;;;;;;;6293011;28;20024;-79
2023/12/23 04:43:48;;;;;;;0.20;0.20;;;;;;;;;;6275169;28;20021;-79
2023/12/23 04:46:50;;;;;;;0.20;0.20;;;;;;;;;;6277147;28;20446;-79
2023/12/23 04:49:50;;;;;;;;;;;;;;;;;;6276825;28;20075;-79
2023/12/23 04:52:51;;;;;;;0.20;0.20;;;;;;;;;;6286742;28;19912;-80
2023/12/23 04:55:51;;;;;;;0.20;0.20;;;;;;;;;;6279442;28;20094;-79
2023/12/23 04:58:52;;;;;;;0.20;0.20;;;;;;;;;;6283630;28;20017;-79
2023/12/23 05:01:52;;;;;;;0.20;0.20;;;;;;;;;;6263563;28;20012;-78
2023/12/23 05:04:52;;;;;;;0.20;0.20;;;;;;;;;;6286020;28;20020;-78
2023/12/23 05:07:52;;;;;;;0.20;0.20;;;;;;;;;;6271752;28;20071;-79
2023/12/23 05:10:53;;;;;;;0.20;0.20;;;;;;;;;;6289201;28;20035;-79
2023/12/23 05:13:53;;;;;;;0.30;0.30;;;;;;;;;;6292382;28;20494;-79
2023/12/23 05:16:53;;;;;;;0.20;0.20;;;;;;;;;;6291767;28;20016;-78
2023/12/23 05:19:55;;;;;;;0.20;0.20;;;;;;;;;;6288310;28;20479;-79
2023/12/23 05:22:55;;;;;;;;;;;;;;;;;;6283637;28;20050;-78
2023/12/23 05:25:55;;;;;;;0.20;0.20;;;;;;;;;;6292396;28;20017;-79
2023/12/23 05:28:55;;;;;;;0.20;0.20;;;;;;;;;;6273844;28;20020;-79
2023/12/23 05:31:56;;;;;;;0.20;0.20;;;;;;;;;;6292053;28;20399;-79
2023/12/23 05:34:57;;;;;;;0.20;0.20;;;;;;;;;;6289656;28;21505;-79
2023/12/23 05:37:57;;;;;;;0.20;0.20;;;;;;;;;;6273894;28;20025;-79
2023/12/23 05:40:57;;;;;;;0.20;0.20;;;;;;;;;;6291234;28;20021;-78
2023/12/23 05:43:57;;;;;;;0.20;0.20;;;;;;;;;;6280244;28;20229;-78
2023/12/23 05:46:58;;;;;;;0.20;0.20;;;;;;;;;;6278804;28;20012;-78
2023/12/23 05:49:58;;;;;;;0.20;0.20;;;;;;;;;;6278637;28;20112;-78
2023/12/23 05:52:58;;;;;;;0.20;0.20;;;;;;;;;;6296875;28;20029;-78
2023/12/23 05:55:58;;;;;;;0.20;0.20;;;;;;;;;;6296385;28;20020;-78
2023/12/23 05:58:59;;;;;;;0.20;0.20;;;;;;;;;;6285675;28;20031;-78
2023/12/23 06:01:59;;;;;;;0.20;0.20;;;;;;;;;;6269023;28;20068;-78
2023/12/23 06:04:59;;;;;;;0.20;0.20;;;;;;;;;;6293223;28;20055;-77
2023/12/23 06:07:59;;;;;;;0.20;0.20;;;;;;;;;;6293627;28;20039;-78
2023/12/23 06:10:59;;;;;;;0.20;0.20;;;;;;;;;;6283633;28;20041;-78
2023/12/23 06:14:00;;;;;;;0.20;0.20;;;;;;;;;;6296805;28;20032;-78
2023/12/23 06:17:00;;;;;;;0.30;0.30;;;;;;;;;;6277728;28;20025;-78
2023/12/23 06:20:00;;;;;;;0.20;0.20;;;;;;;;;;6290389;28;20029;-79
2023/12/23 06:23:00;;;;;;;0.20;0.20;;;;;;;;;;6269770;28;20516;-78
2023/12/23 06:26:00;;;;;;;0.20;0.20;;;;;;;;;;6296596;28;20032;-78
2023/12/23 06:29:00;;;;;;;0.20;0.20;;;;;;;;;;6285653;28;20400;-79
2023/12/23 06:32:02;;;;;;;0.20;0.20;;;;;;;;;;6278843;28;20031;-79
2023/12/23 06:35:02;;;;;;;0.20;0.20;;;;;;;;;;6289670;28;20016;-80
2023/12/23 06:38:02;;;;;;;0.20;0.20;;;;;;;;;;6294235;28;20044;-80
2023/12/23 06:41:03;;;;;;;0.20;0.20;;;;;;;;;;6276450;28;20036;-79
2023/12/23 06:44:03;;;;;;;0.20;0.20;;;;;;;;;;6289162;28;20013;-79
2023/12/23 06:47:05;;;;;;;0.30;0.30;;;;;;;;;;6272189;28;20493;-79
2023/12/23 06:50:06;;;;;;;0.30;0.30;;;;;;;;;;6285785;28;20025;-80
2023/12/23 06:53:08;;;;;;;0.20;0.20;;;;;;;;;;6291735;28;20017;-77
2023/12/23 06:56:10;;;;;;;0.20;0.20;;;;;;;;;;6266387;28;20024;-77
2023/12/23 06:59:12;;;;;;;0.20;0.20;;;;;;;;;;6284133;28;20020;-77
2023/12/23 07:02:13;;;;;;;0.20;0.20;;;;;;;;;;6269349;28;20510;-81
2023/12/23 07:05:14;;;;;;;0.30;0.30;;;;;;;;;;6294708;28;20439;-82
2023/12/23 07:08:15;;;;;;;0.20;0.20;;;;;;;;;;6271556;28;20290;-82
2023/12/23 07:11:15;;;;;;;0.20;0.20;;;;;;;;;;6284373;28;20016;-81
2023/12/23 07:14:15;;;;;;;0.30;0.30;;;;;;;;;;6294552;28;20544;-82
2023/12/23 07:17:16;;;;;;;0.30;0.30;;;;;;;;;;6271543;28;20132;-82
2023/12/23 07:20:16;;;;;;;0.20;0.20;;;;;;;;;;6282571;28;20502;-81
2023/12/23 07:23:16;;;;;;;0.20;0.20;;;;;;;;;;6294299;28;20426;-83
2023/12/23 07:26:16;;;;;;;0.20;0.20;;;;;;;;;;6294357;28;20029;-83
2023/12/23 07:29:17;;;;;;;0.20;0.20;;;;;;;;;;6277672;28;20100;-82
2023/12/23 07:32:17;;;;;;;0.20;0.20;;;;;;;;;;6287579;28;20032;-82
2023/12/23 07:35:17;;;;;;;0.20;0.20;;;;;;;;;;6286455;28;20371;-83
2023/12/23 07:38:17;;;;;;;0.20;0.20;;;;;;;;;;6294001;28;20091;-81
2023/12/23 07:41:17;;;;;;;0.20;0.20;;;;;;;;;;6276244;28;20044;-82
2023/12/23 07:44:18;;;;;;;0.20;0.20;;;;;;;;;;6294213;28;20471;-82
2023/12/23 07:47:18;;;;;;;0.20;0.20;;;;;;;;;;6280677;28;20017;-81
2023/12/23 07:50:18;;;;;;;0.20;0.20;;;;;;;;;;6279142;28;20191;-82
2023/12/23 07:53:18;;;;;;;0.20;0.20;;;;;;;;;;6293756;28;20028;-81
2023/12/23 07:56:18;;;;;;;0.20;0.20;;;;;;;;;;6288767;28;20017;-80
2023/12/23 07:59:19;;;;;;;0.20;0.20;;;;;;;;;;6281443;28;20024;-81
2023/12/23 08:02:19;;;;;;;0.20;0.20;;;;;;;;;;6291004;28;20020;-77
2023/12/23 08:05:20;;;;;;;0.20;0.20;;;;;;;;;;6292663;28;20060;-77
2023/12/23 08:08:20;;;;;;;0.20;0.20;;;;;;;;;;6284927;28;20020;-78
2023/12/23 08:11:22;;;;;;;0.20;0.20;;;;;;;;;;6286055;28;20390;-77
2023/12/23 08:14:22;;;;;;;0.20;0.20;;;;;;;;;;6290735;28;20028;-78
2023/12/23 08:17:22;;;;;;;0.20;0.20;;;;;;;;;;6263761;28;20021;-78
2023/12/23 08:20:23;;;;;;;0.20;0.20;;;;;;;;;;6273163;28;20360;-79
2023/12/23 08:23:23;;;;;;;0.20;0.20;;;;;;;;;;6274228;28;20012;-78
2023/12/23 08:26:23;;;;;;;0.20;0.20;;;;;;;;;;6282016;28;20013;-80
2023/12/23 08:29:25;;;;;;;0.20;0.20;;;;;;;;;;6269126;28;20562;-79
2023/12/23 08:32:25;;;;;;;0.20;0.20;;;;;;;;;;6280705;28;20369;-80
2023/12/23 08:35:25;;;;;;;0.20;0.20;;;;;;;;;;6285532;28;20020;-79
2023/12/23 08:38:25;;;;;;;0.20;0.20;;;;;;;;;;6271853;28;20486;-80
2023/12/23 08:41:25;;;;;;;0.20;0.20;;;;;;;;;;6284936;28;20028;-80
2023/12/23 08:44:26;;;;;;;0.20;0.20;;;;;;;;;;6270713;28;20040;-80
2023/12/23 08:47:26;;;;;;;0.20;0.20;;;;;;;;;;6288860;28;20391;-81
2023/12/23 08:50:26;;;;;;;0.20;0.20;;;;;;;;;;6289193;28;20120;-81
2023/12/23 08:53:26;;;;;;;0.20;0.20;;;;;;;;;;6289888;28;20424;-81
2023/12/23 08:56:26;;;;;;;0.20;0.20;;;;;;;;;;6290333;28;20016;-83
2023/12/23 08:59:26;;;;;;;0.20;0.20;;;;;;;;;;6279721;28;20020;-82
2023/12/23 09:02:27;;;;;;;0.20;0.20;;;;;;;;;;6270910;28;20020;-83
2023/12/23 09:05:27;;;;;;;0.20;0.20;;;;;;;;;;6289743;28;20518;-82
2023/12/23 09:08:27;;;;;;;0.20;0.20;;;;;;;;;;6270166;28;20025;-81
2023/12/23 09:11:28;;;;;;;0.20;0.20;;;;;;;;;;6282729;28;20691;-83
2023/12/23 09:14:29;;;;;;;0.20;0.20;;;;;;;;;;6271391;28;20035;-81
2023/12/23 09:17:29;;;;;;;0.20;0.20;;;;;;;;;;6271983;28;20414;-84
2023/12/23 09:20:30;;;;;;;0.20;0.20;;;;;;;;;;6282969;28;20482;-82
2023/12/23 09:23:30;;;;;;;0.20;0.20;;;;;;;;;;6278078;28;20029;-83
2023/12/23 09:26:30;;;;;;;0.20;0.20;;;;;;;;;;6280999;28;20025;-83
2023/12/23 09:29:30;;;;;;;0.20;0.20;;;;;;;;;;6275904;28;20353;-84
2023/12/23 09:32:30;;;;;;;0.20;0.20;;;;;;;;;;6285247;28;20078;-83
2023/12/23 09:35:31;;;;;;;0.20;0.20;;;;;;;;;;6274482;28;20026;-83
2023/12/23 09:38:31;;;;;;;0.20;0.20;;;;;;;;;;6284057;28;20501;-83
2023/12/23 09:41:32;;;;;;;0.20;0.20;;;;;;;;;;6275321;28;20031;-83
2023/12/23 09:44:32;;;;;;;0.20;0.20;;;;;;;;;;6279697;28;20059;-84
2023/12/23 09:47:32;;;;;;;0.20;0.20;;;;;;;;;;6286238;28;20713;-84
2023/12/23 09:50:32;;;;;;;0.20;0.20;;;;;;;;;;6293685;28;20031;-84
2023/12/23 09:53:37;;;;;;;0.20;0.20;;;;;;;;;;6275522;28;20116;-84
2023/12/23 09:56:37;;;;;;;0.20;0.20;;;;;;;;;;6289309;28;20043;-84
2023/12/23 09:59:37;;;;;;;0.20;0.20;;;;;;;;;;6279320;28;20025;-84
2023/12/23 10:02:38;;;;;;;0.20;0.20;;;;;;;;;;6279738;28;20020;-83
2023/12/23 10:05:42;;;;;;;0.20;0.20;;;;;;;;;;6266390;28;20049;-84
2023/12/23 10:08:42;;;;;;;0.20;0.20;;;;;;;;;;6279952;28;20454;-84
2023/12/23 10:11:42;;;;;;;0.20;0.20;;;;;;;;;;6291224;28;20032;-85
2023/12/23 10:14:43;;;;;;;0.20;0.20;;;;;;;;;;6264314;28;20021;-84
2023/12/23 10:17:44;;;;;;;0.20;0.20;;;;;;;;;;6291263;28;20093;-84
2023/12/23 10:20:44;;;;;;;0.20;0.20;;;;;;;;;;6279115;28;20028;-85
2023/12/23 10:23:44;;;;;;;0.20;0.20;;;;;;;;;;6284061;28;20025;-80
2023/12/23 10:26:45;;;;;;;0.20;0.20;;;;;;;;;;6280202;28;20034;-81
2023/12/23 10:29:48;;;;;;;0.20;0.20;;;;;;;;;;6290910;28;20016;-81
2023/12/23 10:32:49;;;;;;;0.20;0.20;;;;;;;;;;6267074;28;20032;-83
2023/12/23 10:35:50;;;;;;;0.20;0.20;;;;;;;;;;6289063;28;20120;-83
2023/12/23 10:38:53;;;;;;;0.20;0.20;;;;;;;;;;6273693;28;20375;-85
2023/12/23 10:41:57;;;;;;;0.20;0.20;;;;;;;;;;6292622;28;20502;-83
2023/12/23 10:44:58;;;;;;;0.20;0.20;;;;;;;;;;6291614;28;20016;-80
2023/12/23 10:47:59;;;;;;;0.20;0.20;;;;;;;;;;6288320;28;20051;-80
2023/12/23 10:51:01;;;;;;;0.20;0.20;;;;;;;;;;6277969;28;20444;-80
2023/12/23 10:54:02;;;;;;;0.20;0.20;;;;;;;;;;6268030;28;20301;-79
2023/12/23 10:57:04;;;;;;;0.20;0.20;;;;;;;;;;6293031;28;20481;-79
2023/12/23 11:00:05;;;;;;;;;;;;;;;;;;6294246;28;20056;-79
2023/12/23 11:03:07;;;;;;;0.20;0.20;;;;;;;;;;6285407;28;19912;-79
2023/12/23 11:06:07;;;;;;;;;;;;;;;;;;6263578;28;20051;-80
2023/12/23 11:09:09;;;;;;;0.20;0.20;;;;;;;;;;6281638;28;19909;-80
2023/12/23 11:12:09;;;;;;;0.10;0.10;;;;;;;;;;6265212;28;20052;-80
2023/12/23 11:15:10;;;;;;;0.20;0.20;;;;;;;;;;6272850;28;20052;-79
2023/12/23 11:18:10;;;;;;;0.20;0.20;;;;;;;;;;6270533;28;20023;-80
2023/12/23 11:21:16;;;;;;;0.20;0.20;;;;;;;;;;6262458;28;20021;-79
2023/12/23 11:24:33;;;;;;;0.20;0.20;;;;;;;;;;6287336;28;20482;-79
2023/12/23 11:27:34;;;;;;;0.20;0.20;;;;;;;;;;6271238;28;20395;-79
2023/12/23 11:30:37;;;;;;;0.20;0.20;;;;;;;;;;6288775;28;20069;-80
2023/12/23 11:33:38;;;;;;;0.20;0.20;;;;;;;;;;6281587;28;20765;-80
2023/12/23 11:36:38;;;;;;;0.20;0.20;;;;;;;;;;6270734;28;21497;-79
2023/12/23 11:39:41;;;;;;;0.20;0.20;;;;;;;;;;6300348;28;20493;-79
2023/12/23 11:42:41;;;;;;;0.20;0.20;;;;;;;;;;6276134;28;20641;-80
2023/12/23 11:45:43;;;;;;;0.20;0.20;;;;;;;;;;6289715;28;20070;-79
2023/12/23 11:48:43;;;;;;;0.20;0.20;;;;;;;;;;6280553;28;20046;-80
2023/12/23 11:51:44;;;;;;;0.20;0.20;;;;;;;;;;6270856;28;20108;-80
2023/12/23 11:54:44;;;;;;;0.20;0.20;;;;;;;;;;6285822;28;20036;-80
2023/12/23 11:57:44;;;;;;;0.20;0.20;;;;;;;;;;6264791;28;20056;-80
2023/12/23 12:00:49;;;;;;;0.20;0.20;;;;;;;;;;6282408;28;20028;-80
2023/12/23 12:03:50;;;;;;;0.20;0.20;;;;;;;;;;6288132;28;20038;-80
2023/12/23 12:06:51;;;;;;;0.20;0.20;;;;;;;;;;6294773;28;20483;-80
2023/12/23 12:09:51;;;;;;;0.30;0.30;;;;;;;;;;6290517;28;20073;-80
2023/12/23 12:12:51;;;;;;;0.20;0.20;;;;;;;;;;6286604;28;20028;-80
2023/12/23 12:15:51;;;;;;;0.20;0.20;;;;;;;;;;6290866;28;20104;-80
2023/12/23 12:18:52;;;;;;;0.20;0.20;;;;;;;;;;6286470;28;20025;-80
2023/12/23 12:21:52;;;;;;;0.20;0.20;;;;;;;;;;6288516;28;20090;-80
2023/12/23 12:24:52;;;;;;;0.20;0.20;;;;;;;;;;6273886;28;20024;-80
2023/12/23 12:27:52;;;;;;;0.20;0.20;;;;;;;;;;6288650;28;20029;-80
2023/12/23 12:30:52;;;;;;;0.20;0.20;;;;;;;;;;6289374;28;20024;-81
2023/12/23 12:33:53;;;;;;;0.20;0.20;;;;;;;;;;6278130;28;20103;-80
2023/12/23 12:36:53;;;;;;;0.20;0.20;;;;;;;;;;6276659;28;20036;-81
2023/12/23 12:39:54;;;;;;;0.20;0.20;;;;;;;;;;6263772;28;20053;-80
2023/12/23 12:42:54;;;;;;;0.20;0.20;;;;;;;;;;6288158;28;20566;-81
2023/12/23 12:45:56;;;;;;;0.20;0.20;;;;;;;;;;6271242;28;20035;-81
2023/12/23 12:48:56;;;;;;;0.20;0.20;;;;;;;;;;6281644;28;20056;-81
2023/12/23 12:51:56;;;;;;;0.20;0.20;;;;;;;;;;6282493;28;20039;-80
2023/12/23 12:58:34;;;;;;;0.30;0.30;;;;;;;;;;6279975;28;20557;-80
2023/12/23 13:01:35;;;;;;;0.20;0.20;;;;;;;;;;6267159;28;20035;-79
2023/12/23 13:04:35;;;;;;;0.20;0.20;;;;;;;;;;6288442;28;20072;-79
2023/12/23 13:07:35;;;;;;;0.30;0.30;;;;;;;;;;6294540;28;20526;-79
2023/12/23 13:10:36;;;;;;;0.20;0.20;;;;;;;;;;6272652;28;20032;-78
2023/12/23 13:13:36;;;;;;;0.30;0.30;;;;;;;;;;6274827;28;20033;-79
2023/12/23 13:16:36;;;;;;;0.20;0.20;;;;;;;;;;6277739;28;20031;-78
2023/12/23 13:19:37;;;;;;;0.20;0.20;;;;;;;;;;6283768;28;20070;-79
2023/12/23 13:22:37;;;;;;;0.20;0.20;;;;;;;;;;6291836;28;20119;-79
2023/12/23 13:25:37;;;;;;;0.20;0.20;;;;;;;;;;6281163;28;20171;-79
2023/12/23 13:28:38;;;;;;;0.20;0.20;;;;;;;;;;6281662;28;20074;-79
2023/12/23 13:31:38;;;;;;;0.20;0.20;;;;;;;;;;6293643;28;20067;-79
2023/12/23 13:34:38;;;;;;;0.20;0.20;;;;;;;;;;6276505;28;20032;-79
2023/12/23 13:37:40;;;;;;;0.20;0.20;;;;;;;;;;6292688;28;20024;-79
2023/12/23 13:40:40;;;;;;;0.30;0.30;;;;;;;;;;6285248;28;20102;-79
2023/12/23 13:43:41;;;;;;;0.20;0.20;;;;;;;;;;6285393;28;20028;-79
2023/12/23 13:46:41;;;;;;;0.20;0.20;;;;;;;;;;6277836;28;20042;-79
2023/12/23 13:49:41;;;;;;;0.20;0.20;;;;;;;;;;6271676;28;20047;-79
2023/12/23 13:52:41;;;;;;;0.20;0.20;;;;;;;;;;6293701;28;20099;-79
2023/12/23 13:55:43;;;;;;;0.30;0.30;;;;;;;;;;6292237;28;20074;-79
2023/12/23 13:58:43;;;;;;;0.30;0.30;;;;;;;;;;6283398;28;20033;-79
2023/12/23 14:01:44;;;;;;;0.30;0.30;;;;;;;;;;6275778;28;20399;-80
2023/12/23 14:04:44;;;;;;;0.20;0.20;;;;;;;;;;6295675;28;20052;-80
2023/12/23 14:07:44;;;;;;;0.20;0.20;;;;;;;;;;6284437;28;20064;-80
2023/12/23 14:10:45;;;;;;;0.20;0.20;;;;;;;;;;6278405;28;20052;-80
2023/12/23 14:13:45;;;;;;;0.30;0.30;;;;;;;;;;6272781;28;20059;-80
2023/12/23 14:16:45;;;;;;;0.30;0.30;;;;;;;;;;6271597;28;20479;-80
2023/12/23 14:19:45;;;;;;;0.27;0.27;;;;;;;;;;6288136;28;20028;-80
2023/12/23 14:22:46;;;;;;;0.20;0.20;;;;;;;;;;6287422;28;20028;-79
2023/12/23 14:25:46;;;;;;;0.30;0.30;;;;;;;;;;6278214;28;20031;-78
2023/12/23 14:28:46;;;;;;;0.30;0.30;;;;;;;;;;6289561;28;20348;-80
2023/12/23 14:31:48;;;;;;;0.30;0.30;;;;;;;;;;6294519;28;20027;-79
2023/12/23 14:34:48;;;;;;;;;;;;;;;;;;6273552;28;20032;-79
2023/12/23 14:37:48;;;;;;;0.30;0.30;;;;;;;;;;6279775;28;19916;-79
2023/12/23 14:40:51;;;;;;;0.27;0.27;;;;;;;;;;6291045;28;20062;-79
2023/12/23 14:43:51;;;;;;;0.30;0.30;;;;;;;;;;6274212;28;20024;-80
2023/12/23 14:46:52;;;;;;;0.30;0.30;;;;;;;;;;6293381;28;20055;-80
2023/12/23 14:49:52;;;;;;;0.20;0.20;;;;;;;;;;6293238;28;20024;-79
2023/12/23 14:52:52;;;;;;;0.20;0.20;;;;;;;;;;6287530;28;20032;-80
2023/12/23 14:55:52;;;;;;;0.30;0.30;;;;;;;;;;6274746;28;20024;-80
2023/12/23 14:58:53;;;;;;;0.30;0.30;;;;;;;;;;6286742;28;20027;-79
2023/12/23 15:01:53;;;;;;;0.30;0.30;;;;;;;;;;6293353;28;20023;-79
2023/12/23 15:04:53;;;;;;;0.20;0.20;;;;;;;;;;6289136;28;20488;-79
2023/12/23 15:07:53;;;;;;;0.30;0.30;;;;;;;;;;6292727;28;21682;-80
2023/12/23 15:10:53;;;;;;;0.30;0.30;;;;;;;;;;6282658;28;20510;-80
2023/12/23 15:13:54;;;;;;;0.30;0.30;;;;;;;;;;6283299;28;20020;-79
2023/12/23 15:16:57;;;;;;;0.30;0.30;;;;;;;;;;6292370;28;20069;-79
2023/12/23 15:19:58;;;;;;;0.30;0.30;;;;;;;;;;6272244;28;20021;-80
2023/12/23 15:22:58;;;;;;;0.30;0.30;;;;;;;;;;6271832;28;20017;-85
2023/12/23 15:25:58;;;;;;;0.20;0.20;;;;;;;;;;6291591;28;20093;-85
2023/12/23 15:28:58;;;;;;;0.30;0.30;;;;;;;;;;6272708;28;20031;-84
2023/12/23 15:31:58;;;;;;;0.20;0.20;;;;;;;;;;6273289;28;20139;-84
2023/12/23 15:34:58;;;;;;;0.20;0.20;;;;;;;;;;6271204;28;20024;-84
2023/12/23 15:37:59;;;;;;;0.30;0.30;;;;;;;;;;6297847;28;20040;-85
2023/12/23 15:40:59;;;;;;;0.20;0.20;;;;;;;;;;6296576;28;20267;-84
2023/12/23 15:44:00;;;;;;;0.30;0.30;;;;;;;;;;6300673;28;20039;-85
2023/12/23 15:47:00;;;;;;;0.20;0.20;;;;;;;;;;6301014;28;20063;-84
2023/12/23 15:50:00;;;;;;;0.22;0.22;;;;;;;;;;6297892;28;20035;-84
2023/12/23 15:53:01;;;;;;;0.23;0.23;;;;;;;;;;6307998;28;20504;-83
2023/12/23 15:56:01;;;;;;;0.20;0.20;;;;;;;;;;6297129;28;20457;-84
2023/12/23 15:59:01;;;;;;;0.30;0.30;;;;;;;;;;6289567;28;20366;-84
2023/12/23 16:02:01;;;;;;;0.20;0.20;;;;;;;;;;6299846;28;20095;-84
2023/12/23 16:05:03;;;;;;;0.30;0.30;;;;;;;;;;6292815;28;20020;-84
2023/12/23 16:08:03;;;;;;;0.30;0.30;;;;;;;;;;6278946;28;20052;-83
2023/12/23 16:11:03;;;;;;;0.20;0.20;;;;;;;;;;6287082;28;20501;-84
2023/12/23 16:14:04;;;;;;;0.20;0.20;;;;;;;;;;6290419;28;20028;-83
2023/12/23 16:17:04;;;;;;;0.20;0.20;;;;;;;;;;6272859;28;20023;-82
2023/12/23 16:20:08;;;;;;;0.20;0.20;;;;;;;;;;6277368;28;20382;-83
2023/12/23 16:23:08;;;;;;;0.20;0.20;;;;;;;;;;6296212;28;20095;-83
2023/12/23 16:26:13;;;;;;;0.20;0.20;;;;;;;;;;6300546;28;20516;-83
2023/12/23 16:29:13;;;;;;;0.20;0.20;;;;;;;;;;6300317;28;20078;-84
2023/12/23 16:32:13;;;;;;;0.30;0.30;;;;;;;;;;6299495;28;20073;-83
2023/12/23 16:35:14;;;;;;;0.20;0.20;;;;;;;;;;6286224;28;20009;-85
2023/12/23 16:38:14;;;;;;;0.20;0.20;;;;;;;;;;6267302;28;20554;-82
2023/12/23 16:41:14;;;;;;;0.20;0.20;;;;;;;;;;6278278;28;20059;-82
2023/12/23 16:44:14;;;;;;;0.30;0.30;;;;;;;;;;6294038;28;20553;-83
2023/12/23 16:47:14;;;;;;;0.20;0.20;;;;;;;;;;6269198;28;20027;-83
2023/12/23 16:50:15;;;;;;;0.30;0.30;;;;;;;;;;6281790;28;20507;-82
2023/12/23 16:53:15;;;;;;;0.20;0.20;;;;;;;;;;6276117;28;20513;-83
2023/12/23 16:56:15;;;;;;;0.20;0.20;;;;;;;;;;6291782;28;20486;-83
2023/12/23 16:59:15;;;;;;;0.20;0.20;;;;;;;;;;6287598;28;20016;-82
2023/12/23 17:02:16;;;;;;;0.20;0.20;;;;;;;;;;6289124;28;20044;-78
2023/12/23 17:05:16;;;;;;;0.20;0.20;;;;;;;;;;6271009;28;20499;-78
2023/12/23 17:08:16;;;;;;;0.30;0.30;;;;;;;;;;6273485;28;20060;-78
2023/12/23 17:11:16;;;;;;;0.20;0.20;;;;;;;;;;6292665;28;20012;-78
2023/12/23 17:14:16;;;;;;;0.20;0.20;;;;;;;;;;6272507;28;20055;-77
2023/12/23 17:17:17;;;;;;;0.20;0.20;;;;;;;;;;6287047;28;20391;-78
2023/12/23 17:20:17;;;;;;;0.20;0.20;;;;;;;;;;6283411;28;20066;-77
2023/12/23 17:23:19;;;;;;;0.20;0.20;;;;;;;;;;6263009;28;20029;-78
2023/12/23 17:26:19;;;;;;;0.20;0.20;;;;;;;;;;6284456;28;20024;-79
2023/12/23 17:29:19;;;;;;;0.20;0.20;;;;;;;;;;6291340;28;20064;-79
2023/12/23 17:32:22;;;;;;;0.20;0.20;;;;;;;;;;6250361;28;20021;-78
2023/12/23 17:35:25;;;;;;;0.20;0.20;;;;;;;;;;6291955;28;20487;-79
2023/12/23 17:38:25;;;;;;;0.30;0.30;;;;;;;;;;6269045;28;20020;-78
2023/12/23 17:41:27;;;;;;;0.20;0.20;;;;;;;;;;6269705;28;20105;-79
2023/12/23 17:44:28;;;;;;;0.20;0.20;;;;;;;;;;6287656;28;20108;-79
2023/12/23 17:47:28;;;;;;;0.23;0.23;;;;;;;;;;6281289;28;20020;-79
2023/12/23 17:50:28;;;;;;;0.20;0.20;;;;;;;;;;6279038;28;20024;-79
2023/12/23 17:53:29;;;;;;;0.20;0.20;;;;;;;;;;6272064;28;20099;-79
2023/12/23 17:56:30;;;;;;;0.20;0.20;;;;;;;;;;6262437;28;20472;-79
2023/12/23 17:59:30;;;;;;;0.20;0.20;;;;;;;;;;6283023;28;20024;-79
2023/12/23 18:02:31;;;;;;;0.20;0.20;;;;;;;;;;6291732;28;20033;-79
2023/12/23 18:05:32;;;;;;;0.20;0.20;;;;;;;;;;6289497;28;20049;-79
2023/12/23 18:08:32;;;;;;;0.20;0.20;;;;;;;;;;6271829;28;20532;-79